createdAt,value
2023-05-03T00:00:23.210Z,99.6032
2023-05-03T00:01:24.128Z,99.6379
2023-05-03T00:02:26.208Z,99.6278
2023-05-03T00:03:26.264Z,99.6683
2023-05-03T00:04:26.840Z,99.6730
2023-05-03T00:05:28.163Z,99.6018
2023-05-03T00:06:30.310Z,99.6647
2023-05-03T00:07:29.896Z,99.6766
2023-05-03T00:08:30.516Z,99.7281
2023-05-03T00:09:31.407Z,99.7329
2023-05-03T00:10:31.668Z,99.7482
2023-05-03T00:11:33.364Z,99.8435
2023-05-03T00:12:32.697Z,99.9015
2023-05-03T00:13:34.478Z,99.8826
2023-05-03T00:14:34.760Z,99.8793
2023-05-03T00:15:34.878Z,99.8901
2023-05-03T00:16:36.352Z,99.8886
2023-05-03T00:17:38.352Z,99.8516
2023-05-03T00:21:40.295Z,99.9562
2023-05-03T00:22:41.124Z,99.9917
2023-05-03T00:24:41.321Z,99.9962
2023-05-03T00:25:41.924Z,99.9984
2023-05-03T00:26:42.309Z,100.0000
2023-05-03T00:27:42.506Z,100.0000
2023-05-03T00:28:44.174Z,100.0000
2023-05-03T00:29:44.994Z,100.0000
2023-05-03T00:30:46.278Z,100.0000
2023-05-03T00:35:53.048Z,100.0000
2023-05-03T00:36:53.488Z,100.0000
2023-05-03T00:37:53.186Z,100.0000
2023-05-03T00:38:54.359Z,100.0000
2023-05-03T00:40:54.765Z,100.0000
2023-05-03T00:41:55.624Z,100.0000
2023-05-03T00:42:55.801Z,100.0000
2023-05-03T00:43:56.517Z,100.0000
2023-05-03T00:44:57.704Z,100.0000
2023-05-03T00:46:12.443Z,100.0000
2023-05-03T00:47:01.629Z,100.0000
2023-05-03T00:48:03.262Z,100.0000
2023-05-03T00:49:03.545Z,100.0000
2023-05-03T00:50:04.828Z,100.0000
2023-05-03T01:00:22.387Z,100.0000
2023-05-03T01:01:23.963Z,100.0000
2023-05-03T01:02:25.186Z,100.0000
2023-05-03T01:03:26.180Z,100.0000
2023-05-03T01:11:39.295Z,100.0000
2023-05-03T01:12:39.749Z,100.0000
2023-05-03T01:13:40.915Z,100.0000
2023-05-03T01:14:41.360Z,100.0000
2023-05-03T01:15:42.558Z,100.0000
2023-05-03T01:16:44.885Z,100.0000
2023-05-03T01:17:46.633Z,100.0000
2023-05-03T01:20:48.564Z,100.0000
2023-05-03T01:21:48.779Z,100.0000
2023-05-03T01:22:49.780Z,100.0000
2023-05-03T01:23:51.349Z,100.0000
2023-05-03T01:24:52.285Z,100.0000
2023-05-03T01:25:52.886Z,100.0000
2023-05-03T01:26:53.843Z,100.0000
2023-05-03T01:27:54.949Z,100.0000
2023-05-03T01:28:55.745Z,100.0000
2023-05-03T01:29:55.904Z,100.0000
2023-05-03T01:30:57.165Z,100.0000
2023-05-03T01:31:58.498Z,100.0000
2023-05-03T01:33:58.877Z,100.0000
2023-05-03T01:34:59.670Z,100.0000
2023-05-03T01:36:00.632Z,100.0000
2023-05-03T01:37:01.064Z,100.0000
2023-05-03T01:38:01.760Z,100.0000
2023-05-03T01:39:02.452Z,100.0000
2023-05-03T01:40:03.079Z,100.0000
2023-05-03T01:41:03.692Z,100.0000
2023-05-03T01:42:04.876Z,100.0000
2023-05-03T01:43:05.443Z,100.0000
2023-05-03T01:44:05.969Z,100.0000
2023-05-03T01:45:07.579Z,100.0000
2023-05-03T01:46:07.799Z,100.0000
2023-05-03T01:47:08.906Z,100.0000
2023-05-03T01:48:09.020Z,100.0000
2023-05-03T01:49:09.661Z,100.0000
2023-05-03T01:50:10.380Z,100.0000
2023-05-03T01:51:11.144Z,100.0000
2023-05-03T01:52:11.576Z,100.0000
2023-05-03T01:53:11.930Z,100.0000
2023-05-03T01:55:13.475Z,100.0000
2023-05-03T01:56:14.230Z,100.0000
2023-05-03T01:57:14.937Z,100.0000
2023-05-03T01:58:15.393Z,100.0000
2023-05-03T01:59:16.517Z,100.0000
2023-05-03T02:00:17.638Z,100.0000
2023-05-03T02:01:18.995Z,100.0000
2023-05-03T02:04:20.265Z,100.0000
2023-05-03T02:05:21.149Z,100.0000
2023-05-03T02:06:21.700Z,100.0000
2023-05-03T02:07:22.042Z,100.0000
2023-05-03T02:08:22.662Z,100.0000
2023-05-03T02:09:23.138Z,100.0000
2023-05-03T02:10:23.700Z,100.0000
2023-05-03T02:11:24.234Z,100.0000
2023-05-03T02:12:25.726Z,100.0000
2023-05-03T02:13:25.551Z,100.0000
2023-05-03T02:14:28.008Z,100.0000
2023-05-03T02:15:28.963Z,100.0000
2023-05-03T02:16:30.067Z,100.0000
2023-05-03T02:17:30.569Z,100.0000
2023-05-03T02:18:31.168Z,100.0000
2023-05-03T02:19:31.685Z,100.0000
2023-05-03T02:20:32.016Z,100.0000
2023-05-03T02:21:32.701Z,100.0000
2023-05-03T02:22:32.846Z,100.0000
2023-05-03T02:23:33.630Z,100.0000
2023-05-03T02:24:34.329Z,100.0000
2023-05-03T02:25:34.761Z,100.0000
2023-05-03T02:26:35.178Z,100.0000
2023-05-03T02:27:36.132Z,100.0000
2023-05-03T02:28:36.999Z,100.0000
2023-05-03T02:29:38.882Z,100.0000
2023-05-03T02:30:41.037Z,100.0000
2023-05-03T02:31:42.064Z,100.0000
2023-05-03T02:32:43.108Z,100.0000
2023-05-03T02:33:44.094Z,100.0000
2023-05-03T02:34:44.464Z,100.0000
2023-05-03T02:35:45.346Z,100.0000
2023-05-03T02:36:46.207Z,100.0000
2023-05-03T02:37:46.865Z,100.0000
2023-05-03T02:38:46.888Z,100.0000
2023-05-03T02:39:47.573Z,100.0000
2023-05-03T02:40:48.148Z,100.0000
2023-05-03T02:41:48.671Z,100.0000
2023-05-03T02:42:52.580Z,100.0000
2023-05-03T02:43:51.588Z,100.0000
2023-05-03T02:44:51.485Z,100.0000
2023-05-03T02:45:52.318Z,100.0000
2023-05-03T02:46:53.009Z,100.0000
2023-05-03T02:47:53.407Z,100.0000
2023-05-03T02:48:54.124Z,100.0000
2023-05-03T02:49:54.605Z,100.0000
2023-05-03T02:50:55.427Z,100.0000
2023-05-03T02:51:56.090Z,100.0000
2023-05-03T02:52:56.930Z,100.0000
2023-05-03T02:53:58.162Z,100.0000
2023-05-03T02:54:58.635Z,100.0000
2023-05-03T02:55:59.676Z,100.0000
2023-05-03T02:57:00.352Z,100.0000
2023-05-03T02:58:00.438Z,100.0000
2023-05-03T02:59:01.114Z,100.0000
2023-05-03T03:01:01.287Z,100.0000
2023-05-03T03:02:02.548Z,100.0000
2023-05-03T03:03:02.565Z,100.0000
2023-05-03T03:04:02.780Z,100.0000
2023-05-03T03:05:03.830Z,100.0000
2023-05-03T03:06:04.730Z,100.0000
2023-05-03T03:07:05.482Z,100.0000
2023-05-03T03:08:06.472Z,100.0000
2023-05-03T03:09:07.161Z,100.0000
2023-05-03T03:10:07.697Z,100.0000
2023-05-03T03:11:08.188Z,100.0000
2023-05-03T03:12:09.007Z,100.0000
2023-05-03T03:13:09.696Z,100.0000
2023-05-03T03:14:10.298Z,100.0000
2023-05-03T03:15:10.823Z,100.0000
2023-05-03T03:16:11.872Z,100.0000
2023-05-03T03:17:12.891Z,100.0000
2023-05-03T03:18:13.511Z,100.0000
2023-05-03T03:19:14.573Z,100.0000
2023-05-03T03:20:15.654Z,100.0000
2023-05-03T03:21:16.215Z,100.0000
2023-05-03T03:22:17.272Z,100.0000
2023-05-03T03:23:17.756Z,100.0000
2023-05-03T03:24:18.460Z,100.0000
2023-05-03T03:25:18.829Z,100.0000
2023-05-03T03:26:19.356Z,100.0000
2023-05-03T03:27:20.029Z,100.0000
2023-05-03T03:28:21.050Z,100.0000
2023-05-03T03:29:22.342Z,100.0000
2023-05-03T03:30:23.333Z,100.0000
2023-05-03T03:31:23.684Z,100.0000
2023-05-03T03:32:24.818Z,100.0000
2023-05-03T03:34:27.828Z,100.0000
2023-05-03T03:35:28.662Z,100.0000
2023-05-03T03:36:29.626Z,100.0000
2023-05-03T03:37:30.060Z,100.0000
2023-05-03T03:38:31.047Z,100.0000
2023-05-03T03:39:31.263Z,100.0000
2023-05-03T03:40:31.407Z,100.0000
2023-05-03T03:41:31.317Z,100.0000
2023-05-03T03:42:32.046Z,100.0000
2023-05-03T03:43:32.571Z,100.0000
2023-05-03T03:44:33.740Z,100.0000
2023-05-03T03:45:34.568Z,100.0000
2023-05-03T03:46:35.239Z,100.0000
2023-05-03T03:47:36.487Z,100.0000
2023-05-03T03:48:37.248Z,100.0000
2023-05-03T03:49:38.043Z,100.0000
2023-05-03T03:50:38.221Z,100.0000
2023-05-03T03:51:38.702Z,100.0000
2023-05-03T03:52:39.348Z,100.0000
2023-05-03T03:53:40.532Z,100.0000
2023-05-03T03:54:41.608Z,100.0000
2023-05-03T03:55:41.717Z,100.0000
2023-05-03T03:56:42.908Z,100.0000
2023-05-03T03:57:43.832Z,100.0000
2023-05-03T03:58:44.469Z,100.0000
2023-05-03T03:59:45.180Z,100.0000
2023-05-03T04:00:45.376Z,100.0000
2023-05-03T04:01:46.485Z,100.0000
2023-05-03T04:02:48.496Z,100.0000
2023-05-03T04:03:49.569Z,100.0000
2023-05-03T04:04:50.696Z,100.0000
2023-05-03T04:05:52.797Z,100.0000
2023-05-03T04:06:53.920Z,100.0000
2023-05-03T04:10:54.242Z,100.0000
2023-05-03T04:13:55.704Z,100.0000
2023-05-03T04:17:56.927Z,100.0000
2023-05-03T04:18:57.939Z,100.0000
2023-05-03T04:19:58.252Z,100.0000
2023-05-03T04:20:59.228Z,100.0000
2023-05-03T04:21:59.996Z,100.0000
2023-05-03T04:23:01.751Z,100.0000
2023-05-03T04:24:03.009Z,100.0000
2023-05-03T04:25:03.808Z,100.0000
2023-05-03T04:26:05.101Z,100.0000
2023-05-03T04:27:04.517Z,100.0000
2023-05-03T04:28:05.467Z,100.0000
2023-05-03T04:31:06.838Z,100.0000
2023-05-03T04:32:07.122Z,100.0000
2023-05-03T04:39:18.226Z,100.0000
2023-05-03T04:40:19.334Z,100.0000
2023-05-03T04:49:30.287Z,100.0000
2023-05-03T04:50:30.390Z,100.0000
2023-05-03T04:51:30.759Z,100.0000
2023-05-03T04:52:32.118Z,100.0000
2023-05-03T04:53:34.330Z,100.0000
2023-05-03T04:54:37.046Z,100.0000
2023-05-03T04:55:37.877Z,100.0000
2023-05-03T04:56:38.220Z,100.0000
2023-05-03T04:57:38.476Z,100.0000
2023-05-03T05:02:44.446Z,100.0000
2023-05-03T05:03:45.914Z,100.0000
2023-05-03T05:04:46.791Z,100.0000
2023-05-03T05:08:51.846Z,100.0000
2023-05-03T05:09:52.351Z,100.0000
2023-05-03T05:12:54.542Z,100.0000
2023-05-03T05:13:54.669Z,100.0000
2023-05-03T05:14:56.094Z,100.0000
2023-05-03T05:15:55.946Z,100.0000
2023-05-03T05:16:57.364Z,100.0000
2023-05-03T05:17:57.680Z,100.0000
2023-05-03T05:18:57.780Z,100.0000
2023-05-03T05:19:58.394Z,100.0000
2023-05-03T05:20:59.617Z,99.9984
2023-05-03T05:22:00.588Z,99.8703
2023-05-03T05:23:01.285Z,99.9344
2023-05-03T05:24:02.376Z,99.8243
2023-05-03T05:25:02.999Z,99.7872
2023-05-03T05:26:03.524Z,99.7391
2023-05-03T05:27:04.651Z,99.7263
2023-05-03T05:28:05.393Z,99.7089
2023-05-03T05:29:05.438Z,99.6132
2023-05-03T05:30:06.278Z,99.5111
2023-05-03T05:31:07.261Z,99.4305
2023-05-03T05:32:08.468Z,99.4253
2023-05-03T05:33:09.486Z,99.4514
2023-05-03T05:34:09.954Z,99.4830
2023-05-03T05:35:10.923Z,99.4077
2023-05-03T05:36:11.090Z,99.3427
2023-05-03T05:37:11.952Z,99.0930
2023-05-03T05:38:13.268Z,98.9991
2023-05-03T05:39:14.093Z,98.8497
2023-05-03T05:40:14.745Z,98.9178
2023-05-03T05:41:15.647Z,98.8332
2023-05-03T05:42:16.820Z,98.8840
2023-05-03T05:43:16.918Z,98.7797
2023-05-03T05:45:18.480Z,98.7768
2023-05-03T05:46:19.047Z,98.7352
2023-05-03T05:47:19.098Z,98.6499
2023-05-03T05:48:19.535Z,98.7552
2023-05-03T05:49:19.949Z,98.5264
2023-05-03T05:50:21.125Z,98.3733
2023-05-03T05:51:21.979Z,98.3125
2023-05-03T05:54:23.415Z,98.1816
2023-05-03T05:55:24.395Z,98.1809
2023-05-03T05:58:26.951Z,97.9624
2023-05-03T05:59:27.516Z,97.9984
2023-05-03T06:00:27.690Z,97.9467
2023-05-03T06:01:28.547Z,98.1704
2023-05-03T06:02:30.035Z,98.1530
2023-05-03T06:03:30.514Z,98.0212
2023-05-03T06:04:31.664Z,97.8032
2023-05-03T06:05:32.115Z,97.9631
2023-05-03T06:06:33.037Z,97.7854
2023-05-03T06:07:34.088Z,97.6183
2023-05-03T06:08:34.380Z,97.6779
2023-05-03T06:09:34.923Z,97.7293
2023-05-03T06:10:36.417Z,97.8511
2023-05-03T06:11:36.862Z,98.0098
2023-05-03T06:12:37.590Z,98.0197
2023-05-03T06:13:38.696Z,97.9129
2023-05-03T06:14:42.230Z,97.8520
2023-05-03T06:15:40.459Z,97.7443
2023-05-03T06:16:41.577Z,97.9107
2023-05-03T06:19:45.060Z,98.0738
2023-05-03T06:20:44.623Z,98.0719
2023-05-03T06:21:43.879Z,98.1122
2023-05-03T06:22:45.155Z,97.9690
2023-05-03T06:23:46.268Z,97.9142
2023-05-03T06:24:47.067Z,97.6787
2023-05-03T06:25:47.913Z,97.6427
2023-05-03T06:26:48.453Z,97.6178
2023-05-03T06:27:49.165Z,97.7106
2023-05-03T06:28:49.362Z,97.5673
2023-05-03T06:29:50.045Z,97.3892
2023-05-03T06:30:51.034Z,97.4238
2023-05-03T06:31:51.542Z,97.5201
2023-05-03T06:32:52.450Z,97.3033
2023-05-03T06:33:53.388Z,97.4348
2023-05-03T06:34:54.161Z,97.4624
2023-05-03T06:35:54.856Z,97.5666
2023-05-03T06:36:55.801Z,97.3067
2023-05-03T06:37:56.557Z,97.3558
2023-05-03T06:38:57.616Z,97.4278
2023-05-03T06:39:58.423Z,97.2660
2023-05-03T06:40:59.191Z,97.2376
2023-05-03T06:42:00.150Z,97.4131
2023-05-03T06:43:00.720Z,97.4767
2023-05-03T06:44:01.587Z,97.4255
2023-05-03T06:45:01.732Z,97.2930
2023-05-03T06:46:01.815Z,97.2622
2023-05-03T06:47:03.053Z,97.2620
2023-05-03T06:48:03.745Z,97.1772
2023-05-03T06:49:03.944Z,97.1053
2023-05-03T06:50:04.996Z,97.2091
2023-05-03T06:51:05.138Z,97.3390
2023-05-03T06:52:05.821Z,97.2283
2023-05-03T06:53:06.673Z,97.3211
2023-05-03T06:54:07.455Z,96.8940
2023-05-03T06:55:07.994Z,96.7255
2023-05-03T06:56:08.814Z,96.6138
2023-05-03T06:57:09.574Z,96.2330
2023-05-03T06:58:10.122Z,96.1060
2023-05-03T06:59:10.873Z,95.7652
2023-05-03T07:00:12.066Z,95.2042
2023-05-03T07:01:12.933Z,95.2674
2023-05-03T07:02:13.424Z,95.2731
2023-05-03T07:03:13.488Z,95.3656
2023-05-03T07:04:13.649Z,95.5352
2023-05-03T07:05:13.662Z,95.9317
2023-05-03T07:06:13.995Z,95.9220
2023-05-03T07:07:14.496Z,95.5760
2023-05-03T07:08:15.465Z,95.3136
2023-05-03T07:09:16.530Z,95.3713
2023-05-03T07:10:17.182Z,95.3898
2023-05-03T07:11:17.204Z,95.1383
2023-05-03T07:12:17.970Z,95.0460
2023-05-03T07:13:18.505Z,94.8416
2023-05-03T07:14:19.305Z,94.8045
2023-05-03T07:15:19.841Z,94.6320
2023-05-03T07:16:20.651Z,94.8182
2023-05-03T07:17:21.740Z,94.3540
2023-05-03T07:18:22.382Z,94.1577
2023-05-03T07:19:23.280Z,93.9932
2023-05-03T07:20:24.605Z,93.7394
2023-05-03T07:21:25.777Z,93.8379
2023-05-03T07:22:26.539Z,94.1555
2023-05-03T07:23:27.100Z,93.9207
2023-05-03T07:24:27.711Z,93.8394
2023-05-03T07:25:28.937Z,93.8338
2023-05-03T07:26:29.421Z,93.7062
2023-05-03T07:27:30.580Z,93.4315
2023-05-03T07:28:31.313Z,92.7570
2023-05-03T07:29:31.942Z,92.5093
2023-05-03T07:30:32.594Z,92.4858
2023-05-03T07:31:33.093Z,92.1725
2023-05-03T07:32:34.186Z,92.4241
2023-05-03T07:33:34.662Z,92.6743
2023-05-03T07:34:35.677Z,92.3218
2023-05-03T07:35:36.368Z,92.6760
2023-05-03T07:36:37.120Z,92.4279
2023-05-03T07:37:37.669Z,91.3934
2023-05-03T07:38:38.344Z,91.0433
2023-05-03T07:39:39.056Z,91.2732
2023-05-03T07:40:40.219Z,91.3847
2023-05-03T07:41:40.915Z,91.4502
2023-05-03T07:42:41.468Z,91.7446
2023-05-03T07:43:42.340Z,91.0691
2023-05-03T07:44:43.261Z,91.1091
2023-05-03T07:45:44.030Z,91.1209
2023-05-03T07:46:45.164Z,90.5564
2023-05-03T07:47:45.930Z,91.2591
2023-05-03T07:48:46.973Z,91.5227
2023-05-03T07:49:47.560Z,91.6000
2023-05-03T07:50:48.332Z,90.9333
2023-05-03T07:51:48.978Z,90.3688
2023-05-03T07:52:49.759Z,90.4324
2023-05-03T07:53:50.274Z,91.1999
2023-05-03T07:54:51.303Z,90.4503
2023-05-03T07:55:51.968Z,90.7341
2023-05-03T07:56:55.035Z,90.5362
2023-05-03T07:57:54.101Z,89.5110
2023-05-03T07:59:04.691Z,89.3938
2023-05-03T08:00:54.900Z,89.7074
2023-05-03T08:01:55.792Z,89.6466
2023-05-03T08:02:56.522Z,89.2286
2023-05-03T08:03:57.044Z,88.9491
2023-05-03T08:04:57.488Z,89.1753
2023-05-03T08:05:57.912Z,89.3732
2023-05-03T08:06:58.925Z,89.3258
2023-05-03T08:07:59.634Z,89.6713
2023-05-03T08:09:00.246Z,89.2898
2023-05-03T08:10:01.300Z,89.7612
2023-05-03T08:11:01.768Z,89.0170
2023-05-03T08:12:02.663Z,89.2349
2023-05-03T08:13:03.430Z,88.5980
2023-05-03T08:14:04.256Z,88.0406
2023-05-03T08:15:05.163Z,88.4405
2023-05-03T08:16:05.807Z,89.1240
2023-05-03T08:17:06.694Z,89.1219
2023-05-03T08:18:07.423Z,89.0630
2023-05-03T08:19:07.410Z,88.4241
2023-05-03T08:20:08.218Z,87.9535
2023-05-03T08:21:08.905Z,88.2206
2023-05-03T08:22:09.418Z,87.9450
2023-05-03T08:23:10.860Z,87.3123
2023-05-03T08:25:10.841Z,86.9102
2023-05-03T08:26:11.691Z,86.7819
2023-05-03T08:27:12.614Z,86.8514
2023-05-03T08:28:13.257Z,86.9237
2023-05-03T08:29:13.975Z,87.3360
2023-05-03T08:30:15.443Z,86.3836
2023-05-03T08:31:16.317Z,86.6345
2023-05-03T08:32:17.427Z,87.5282
2023-05-03T08:33:18.205Z,87.4463
2023-05-03T08:34:18.758Z,87.0057
2023-05-03T08:35:19.590Z,86.6585
2023-05-03T08:36:20.366Z,86.5424
2023-05-03T08:37:21.392Z,86.5163
2023-05-03T08:38:22.227Z,86.7313
2023-05-03T08:39:22.892Z,86.0509
2023-05-03T08:40:23.609Z,85.4881
2023-05-03T08:41:24.376Z,85.6245
2023-05-03T08:42:25.808Z,85.4496
2023-05-03T08:43:25.506Z,85.2012
2023-05-03T08:44:26.026Z,85.5654
2023-05-03T08:45:26.839Z,85.6430
2023-05-03T08:46:28.105Z,85.1179
2023-05-03T08:47:28.220Z,84.6336
2023-05-03T08:48:30.622Z,84.8650
2023-05-03T08:49:29.531Z,85.5720
2023-05-03T08:50:30.168Z,85.3219
2023-05-03T08:51:30.952Z,85.7319
2023-05-03T08:52:31.483Z,85.2809
2023-05-03T08:53:32.120Z,84.4658
2023-05-03T08:54:32.931Z,84.7162
2023-05-03T08:55:33.361Z,84.5500
2023-05-03T08:56:34.243Z,84.6737
2023-05-03T08:57:34.885Z,85.5129
2023-05-03T08:58:34.976Z,84.9758
2023-05-03T08:59:35.683Z,85.3999
2023-05-03T09:00:37.135Z,85.8084
2023-05-03T09:01:37.810Z,85.5775
2023-05-03T09:02:38.738Z,85.9574
2023-05-03T09:03:40.401Z,85.5105
2023-05-03T09:04:40.562Z,86.2007
2023-05-03T09:05:41.364Z,85.5989
2023-05-03T09:06:42.452Z,85.5680
2023-05-03T09:07:42.895Z,85.1740
2023-05-03T09:08:43.588Z,85.5459
2023-05-03T09:09:46.865Z,85.6492
2023-05-03T09:10:44.510Z,85.3684
2023-05-03T09:11:45.351Z,85.5524
2023-05-03T09:12:45.997Z,84.6734
2023-05-03T09:13:46.712Z,85.0436
2023-05-03T09:14:47.478Z,84.5770
2023-05-03T09:15:47.917Z,83.6653
2023-05-03T09:16:48.313Z,83.6168
2023-05-03T09:17:48.915Z,83.4743
2023-05-03T09:18:49.967Z,83.7085
2023-05-03T09:19:50.728Z,83.3149
2023-05-03T09:20:52.613Z,82.6953
2023-05-03T09:21:52.645Z,83.5693
2023-05-03T09:22:53.238Z,82.2824
2023-05-03T09:23:53.942Z,82.1541
2023-05-03T09:24:54.754Z,82.6229
2023-05-03T09:25:55.274Z,82.8965
2023-05-03T09:26:56.029Z,83.9455
2023-05-03T09:27:56.860Z,82.8815
2023-05-03T09:28:57.518Z,82.9395
2023-05-03T09:29:58.268Z,82.5228
2023-05-03T09:30:59.357Z,83.3633
2023-05-03T09:31:59.808Z,81.5015
2023-05-03T09:33:00.935Z,81.7650
2023-05-03T09:34:01.459Z,82.7201
2023-05-03T09:35:02.359Z,83.1857
2023-05-03T09:36:03.309Z,82.9643
2023-05-03T09:37:03.603Z,82.1199
2023-05-03T09:38:04.262Z,81.5709
2023-05-03T09:39:04.971Z,80.7840
2023-05-03T09:40:05.573Z,81.0511
2023-05-03T09:41:06.404Z,81.3502
2023-05-03T09:42:06.936Z,81.5434
2023-05-03T09:43:07.499Z,80.4734
2023-05-03T09:44:08.292Z,81.3268
2023-05-03T09:45:08.783Z,80.8828
2023-05-03T09:46:09.852Z,80.2461
2023-05-03T09:47:10.855Z,80.4891
2023-05-03T09:48:12.070Z,80.0887
2023-05-03T09:49:12.826Z,79.5550
2023-05-03T09:50:13.375Z,79.7427
2023-05-03T09:51:14.105Z,79.2521
2023-05-03T09:52:14.798Z,79.3884
2023-05-03T09:53:15.283Z,78.9724
2023-05-03T09:54:16.153Z,79.7607
2023-05-03T09:55:16.891Z,79.7383
2023-05-03T09:56:17.460Z,78.5031
2023-05-03T09:57:18.214Z,79.0149
2023-05-03T09:58:18.685Z,79.7796
2023-05-03T09:59:19.541Z,79.3502
2023-05-03T10:00:20.264Z,79.2453
2023-05-03T10:01:20.915Z,79.3446
2023-05-03T10:02:20.901Z,77.7274
2023-05-03T10:03:21.901Z,78.1811
2023-05-03T10:04:22.886Z,79.1765
2023-05-03T10:05:23.870Z,77.8324
2023-05-03T10:06:24.797Z,77.8439
2023-05-03T10:07:25.313Z,79.7377
2023-05-03T10:08:25.994Z,79.9845
2023-05-03T10:09:26.499Z,77.7778
2023-05-03T10:10:27.144Z,78.6848
2023-05-03T10:11:28.017Z,76.2057
2023-05-03T10:12:28.585Z,75.6757
2023-05-03T10:13:29.224Z,75.1105
2023-05-03T10:14:30.049Z,74.8892
2023-05-03T10:15:30.878Z,74.9961
2023-05-03T10:16:31.812Z,74.6710
2023-05-03T10:17:46.365Z,74.7353
2023-05-03T10:18:32.474Z,74.3386
2023-05-03T10:19:33.613Z,74.3946
2023-05-03T10:20:34.317Z,75.2661
2023-05-03T10:21:35.024Z,74.7848
2023-05-03T10:22:35.931Z,74.3262
2023-05-03T10:23:36.776Z,75.3575
2023-05-03T10:24:37.480Z,73.3530
2023-05-03T10:25:37.999Z,73.6036
2023-05-03T10:26:39.142Z,73.8976
2023-05-03T10:27:39.978Z,71.4435
2023-05-03T10:28:40.417Z,71.7325
2023-05-03T10:29:41.184Z,72.0968
2023-05-03T10:30:41.668Z,71.1349
2023-05-03T10:31:42.617Z,71.5478
2023-05-03T10:32:42.693Z,71.8367
2023-05-03T10:33:43.468Z,70.9180
2023-05-03T10:34:44.599Z,71.8587
2023-05-03T10:35:44.253Z,71.1346
2023-05-03T10:36:49.834Z,72.7795
